createdAt,value
2023-04-07T00:00:25.767Z,38.60
2023-04-07T00:02:52.403Z,38.62
2023-04-07T00:05:19.028Z,39.51
2023-04-07T00:07:55.949Z,39.13
2023-04-07T00:10:25.345Z,39.15
2023-04-07T00:12:52.359Z,39.18
2023-04-07T00:15:18.861Z,39.44
2023-04-07T00:17:45.348Z,38.86
2023-04-07T00:20:12.355Z,39.22
2023-04-07T00:22:38.886Z,39.07
2023-04-07T00:25:05.866Z,39.25
2023-04-07T00:27:32.357Z,38.95
2023-04-07T00:29:58.850Z,38.98
2023-04-07T00:32:25.629Z,38.95
2023-04-07T00:34:52.178Z,38.88
2023-04-07T00:37:18.661Z,38.92
2023-04-07T00:39:45.437Z,39.38
2023-04-07T00:42:11.989Z,39.01
2023-04-07T00:44:38.599Z,39.84
2023-04-07T00:47:05.239Z,39.64
2023-04-07T00:49:31.817Z,39.32
2023-04-07T00:51:59.021Z,39.18
2023-04-07T00:54:25.523Z,39.79
2023-04-07T00:56:54.747Z,39.24
2023-04-07T00:59:21.415Z,39.72
2023-04-07T01:02:23.029Z,40.03
2023-04-07T01:05:11.128Z,39.90
2023-04-07T01:07:46.946Z,39.46
2023-04-07T01:10:20.701Z,39.51
2023-04-07T01:13:02.709Z,39.05
2023-04-07T01:15:33.733Z,39.02
2023-04-07T01:18:31.927Z,39.31
2023-04-07T01:21:09.356Z,39.21
2023-04-07T01:23:51.842Z,39.23
2023-04-07T01:26:31.031Z,38.72
2023-04-07T01:29:28.081Z,39.11
2023-04-07T01:31:58.363Z,39.41
2023-04-07T01:34:29.479Z,38.54
2023-04-07T01:36:59.126Z,38.53
2023-04-07T01:39:27.937Z,38.62
2023-04-07T01:41:55.813Z,39.55
2023-04-07T01:44:22.919Z,39.35
2023-04-07T01:46:50.617Z,39.02
2023-04-07T01:49:19.428Z,39.00
2023-04-07T01:51:46.287Z,39.84
2023-04-07T01:54:12.921Z,39.83
2023-04-07T01:56:39.448Z,39.60
2023-04-07T01:59:05.897Z,38.89
2023-04-07T02:01:32.699Z,39.23
2023-04-07T02:04:21.924Z,39.14
2023-04-07T02:06:54.425Z,39.09
2023-04-07T02:09:23.980Z,39.48
2023-04-07T02:11:55.392Z,39.06
2023-04-07T02:14:23.775Z,39.79
2023-04-07T02:16:52.466Z,39.35
2023-04-07T02:19:19.615Z,39.28
2023-04-07T02:21:48.485Z,39.18
2023-04-07T02:24:19.027Z,38.75
2023-04-07T02:26:45.482Z,38.97
2023-04-07T02:29:11.970Z,38.63
2023-04-07T02:31:38.504Z,38.36
2023-04-07T02:34:04.981Z,38.79
2023-04-07T02:36:31.513Z,39.15
2023-04-07T02:38:58.497Z,38.82
2023-04-07T02:41:24.963Z,39.00
2023-04-07T02:43:51.434Z,38.97
2023-04-07T02:46:17.984Z,38.51
2023-04-07T02:48:44.518Z,38.80
2023-04-07T02:51:11.005Z,38.58
2023-04-07T02:53:37.463Z,38.63
2023-04-07T02:56:04.173Z,38.87
2023-04-07T02:58:30.661Z,39.09
2023-04-07T03:00:57.169Z,39.02
2023-04-07T03:03:23.836Z,38.10
2023-04-07T03:05:50.498Z,38.59
2023-04-07T03:08:16.987Z,39.10
2023-04-07T03:10:43.507Z,39.33
2023-04-07T03:13:10.044Z,39.66
2023-04-07T03:15:36.499Z,39.63
2023-04-07T03:18:03.021Z,39.72
2023-04-07T03:20:29.567Z,39.58
2023-04-07T03:22:56.073Z,39.07
2023-04-07T03:25:22.545Z,39.25
2023-04-07T03:27:49.071Z,39.53
2023-04-07T03:30:15.629Z,39.74
2023-04-07T03:32:42.170Z,39.52
2023-04-07T03:35:08.989Z,39.50
2023-04-07T03:37:35.466Z,38.80
2023-04-07T03:40:02.038Z,39.20
2023-04-07T03:42:28.548Z,39.21
2023-04-07T03:44:55.002Z,39.77
2023-04-07T03:47:21.454Z,40.45
2023-04-07T03:49:48.030Z,42.63
2023-04-07T03:52:14.556Z,43.12
2023-04-07T03:54:41.045Z,43.49
2023-04-07T03:57:07.542Z,43.54
2023-04-07T03:59:34.195Z,43.14
2023-04-07T04:02:00.726Z,42.63
2023-04-07T04:04:27.222Z,43.92
2023-04-07T04:06:53.796Z,44.67
2023-04-07T04:09:20.283Z,45.30
2023-04-07T04:11:47.051Z,44.81
2023-04-07T04:14:13.570Z,45.30
2023-04-07T04:16:40.074Z,44.70
2023-04-07T04:19:06.572Z,44.41
2023-04-07T04:21:33.149Z,43.74
2023-04-07T04:23:59.677Z,43.13
2023-04-07T04:26:26.213Z,43.30
2023-04-07T04:28:52.872Z,42.48
2023-04-07T04:31:19.383Z,41.52
2023-04-07T04:33:46.270Z,42.80
2023-04-07T04:36:12.774Z,43.06
2023-04-07T04:38:39.238Z,44.85
2023-04-07T04:41:05.722Z,45.20
2023-04-07T04:43:32.201Z,45.20
2023-04-07T04:45:59.188Z,45.29
2023-04-07T04:48:25.717Z,48.19
2023-04-07T04:50:52.221Z,51.76
2023-04-07T04:53:18.856Z,51.25
2023-04-07T04:55:45.385Z,52.79
2023-04-07T04:58:11.913Z,51.40
2023-04-07T05:00:38.415Z,54.68
2023-04-07T05:03:05.130Z,59.96
2023-04-07T05:05:31.668Z,59.98
2023-04-07T05:07:58.175Z,63.68
2023-04-07T05:10:24.676Z,65.41
2023-04-07T05:12:51.193Z,65.48
2023-04-07T05:15:17.740Z,65.82
2023-04-07T05:17:44.241Z,62.99
2023-04-07T05:20:14.574Z,65.17
2023-04-07T05:22:41.104Z,66.65
2023-04-07T05:25:08.165Z,67.64
2023-04-07T05:27:34.665Z,66.95
2023-04-07T05:30:01.212Z,66.80
2023-04-07T05:32:28.792Z,67.75
2023-04-07T05:34:55.275Z,61.53
2023-04-07T05:37:21.779Z,60.00
2023-04-07T05:39:48.299Z,60.86
2023-04-07T05:42:14.800Z,60.12
2023-04-07T05:44:41.309Z,59.51
2023-04-07T05:47:07.782Z,60.35
2023-04-07T05:49:35.173Z,61.15
2023-04-07T05:52:01.670Z,61.60
2023-04-07T05:54:28.154Z,61.20
2023-04-07T05:56:54.604Z,60.78
2023-04-07T05:59:21.100Z,62.42
2023-04-07T06:01:49.504Z,64.31
2023-04-07T06:04:16.078Z,62.30
2023-04-07T06:06:43.668Z,61.57
2023-04-07T06:09:10.169Z,60.65
2023-04-07T06:11:36.629Z,60.83
2023-04-07T06:14:03.149Z,61.24
2023-04-07T06:16:29.648Z,60.77
2023-04-07T06:18:56.174Z,61.66
2023-04-07T06:21:22.702Z,61.29
2023-04-07T06:23:49.449Z,61.68
2023-04-07T06:26:16.169Z,61.26
2023-04-07T06:28:42.610Z,60.53
2023-04-07T06:31:09.222Z,61.57
2023-04-07T06:33:35.809Z,61.37
2023-04-07T06:36:02.409Z,61.49
2023-04-07T06:38:28.987Z,60.34
2023-04-07T06:40:55.639Z,60.09
2023-04-07T06:43:22.089Z,59.52
2023-04-07T06:45:48.884Z,60.53
2023-04-07T06:48:16.012Z,59.32
2023-04-07T06:50:46.449Z,58.38
2023-04-07T06:53:13.015Z,59.41
2023-04-07T06:55:39.504Z,60.61
2023-04-07T06:58:05.956Z,61.07
2023-04-07T07:00:32.515Z,62.98
2023-04-07T07:02:59.212Z,63.58
2023-04-07T07:05:25.852Z,63.11
2023-04-07T07:07:52.371Z,64.86
2023-04-07T07:10:18.925Z,64.59
2023-04-07T07:12:45.375Z,64.87
2023-04-07T07:15:12.127Z,64.96
2023-04-07T07:17:38.658Z,64.17
2023-04-07T07:20:05.869Z,64.65
2023-04-07T07:22:32.318Z,65.28
2023-04-07T07:24:58.845Z,66.07
2023-04-07T07:27:25.324Z,67.25
2023-04-07T07:29:51.794Z,65.61
2023-04-07T07:32:18.244Z,65.43
2023-04-07T07:34:44.801Z,64.80
2023-04-07T07:37:11.381Z,65.73
2023-04-07T07:39:37.905Z,63.79
2023-04-07T07:42:04.392Z,64.69
2023-04-07T07:44:32.538Z,65.39
2023-04-07T07:46:59.162Z,66.03
2023-04-07T07:49:25.648Z,65.29
2023-04-07T07:51:52.109Z,65.09
2023-04-07T07:54:18.627Z,64.94
2023-04-07T07:56:45.124Z,65.98
2023-04-07T07:59:11.650Z,66.16
2023-04-07T08:01:38.164Z,66.64
2023-04-07T08:04:04.773Z,66.05
2023-04-07T08:06:31.313Z,66.32
2023-04-07T08:08:57.925Z,65.62
2023-04-07T08:11:24.475Z,65.33
2023-04-07T08:13:51.172Z,65.25
2023-04-07T08:16:17.824Z,64.01
2023-04-07T08:18:44.381Z,64.69
2023-04-07T08:21:10.909Z,63.93
2023-04-07T08:23:37.380Z,63.11
2023-04-07T08:26:03.880Z,63.22
2023-04-07T08:28:30.410Z,63.03
2023-04-07T08:30:56.984Z,63.43
2023-04-07T08:33:23.454Z,62.31
2023-04-07T08:35:49.940Z,62.56
2023-04-07T08:38:16.451Z,63.08
2023-04-07T08:40:42.911Z,62.94
2023-04-07T08:43:10.182Z,64.11
2023-04-07T08:45:41.693Z,63.62
2023-04-07T08:48:17.022Z,63.92
2023-04-07T08:50:45.432Z,62.67
2023-04-07T08:53:18.327Z,62.16
2023-04-07T08:55:44.928Z,62.32
2023-04-07T08:58:13.302Z,62.32
2023-04-07T09:00:40.975Z,61.27
2023-04-07T09:03:10.873Z,62.91
2023-04-07T09:05:38.982Z,62.57
2023-04-07T09:08:05.477Z,62.89
2023-04-07T09:10:32.094Z,62.40
2023-04-07T09:12:59.519Z,63.78
2023-04-07T09:15:30.830Z,63.26
2023-04-07T09:17:57.846Z,63.27
2023-04-07T09:20:24.552Z,63.11
2023-04-07T09:22:51.568Z,62.19
2023-04-07T09:25:23.774Z,61.39
2023-04-07T09:28:04.756Z,62.67
2023-04-07T09:30:33.452Z,62.99
2023-04-07T09:33:01.563Z,63.41
2023-04-07T09:35:28.290Z,62.25
2023-04-07T09:38:01.924Z,61.67
2023-04-07T09:40:28.500Z,60.82
2023-04-07T09:42:55.026Z,62.14
2023-04-07T09:45:33.804Z,61.10
2023-04-07T09:48:09.052Z,61.47
2023-04-07T09:50:39.291Z,61.05
2023-04-07T09:53:05.774Z,62.33
2023-04-07T09:55:33.604Z,62.20
2023-04-07T09:58:00.358Z,61.62
2023-04-07T10:00:26.969Z,62.42
2023-04-07T10:02:54.935Z,62.08
2023-04-07T10:05:22.009Z,60.74
2023-04-07T10:07:49.286Z,59.72
2023-04-07T10:10:16.008Z,59.92
2023-04-07T10:12:43.209Z,59.91
2023-04-07T10:15:12.943Z,59.87
2023-04-07T10:17:40.341Z,59.52
2023-04-07T10:20:09.847Z,58.91
2023-04-07T10:22:38.808Z,58.37
2023-04-07T10:25:12.516Z,58.54
2023-04-07T10:27:44.933Z,59.06
2023-04-07T10:30:26.901Z,58.55
2023-04-07T10:32:54.965Z,59.28
2023-04-07T10:35:22.678Z,58.98
2023-04-07T10:38:07.478Z,59.18
2023-04-07T10:40:35.535Z,58.66
2023-04-07T10:43:02.409Z,57.91
2023-04-07T10:45:47.331Z,56.96
2023-04-07T10:48:16.318Z,57.60
2023-04-07T10:50:42.793Z,57.94
2023-04-07T10:53:11.334Z,57.70
2023-04-07T10:55:39.756Z,57.20
2023-04-07T10:58:26.065Z,56.62
2023-04-07T11:01:08.024Z,55.04
2023-04-07T11:03:39.784Z,55.40
2023-04-07T11:06:07.612Z,54.03
2023-04-07T11:08:43.672Z,53.72
2023-04-07T11:11:12.984Z,53.65
2023-04-07T11:13:43.210Z,53.35
2023-04-07T11:16:10.759Z,54.36
2023-04-07T11:18:37.684Z,55.63
2023-04-07T11:21:07.250Z,54.50
2023-04-07T11:23:42.293Z,55.01
2023-04-07T11:26:11.182Z,53.56
2023-04-07T11:28:51.704Z,54.38
2023-04-07T11:31:22.515Z,53.43
2023-04-07T11:33:57.105Z,53.76
2023-04-07T11:36:30.763Z,52.42
2023-04-07T11:38:57.276Z,53.68
2023-04-07T11:41:26.188Z,55.31
2023-04-07T11:44:14.057Z,54.36
2023-04-07T11:47:00.825Z,55.66
2023-04-07T11:49:28.282Z,54.08
2023-04-07T11:52:03.776Z,55.00
2023-04-07T11:54:46.533Z,55.03
2023-04-07T11:57:14.426Z,56.39
2023-04-07T11:59:41.475Z,56.41
2023-04-07T12:02:08.363Z,56.03
2023-04-07T12:04:35.161Z,55.96
2023-04-07T12:07:10.990Z,56.20
2023-04-07T12:09:38.416Z,54.94
2023-04-07T12:12:06.737Z,54.00
2023-04-07T12:14:34.605Z,53.89
2023-04-07T12:17:01.092Z,54.20
2023-04-07T12:19:28.964Z,54.69
2023-04-07T12:21:56.565Z,54.34
2023-04-07T12:24:23.284Z,54.93
2023-04-07T12:26:49.877Z,55.98
2023-04-07T12:29:17.700Z,55.56
2023-04-07T12:31:44.195Z,56.95
2023-04-07T12:34:10.729Z,57.58
2023-04-07T12:36:37.237Z,56.97
2023-04-07T12:39:03.868Z,55.56
2023-04-07T12:41:30.363Z,54.12
2023-04-07T12:43:56.880Z,54.71
2023-04-07T12:46:23.450Z,54.79
2023-04-07T12:48:50.119Z,54.67
2023-04-07T12:51:16.791Z,55.70
2023-04-07T12:53:43.255Z,55.66
2023-04-07T12:56:10.105Z,55.69
2023-04-07T12:58:36.609Z,54.62
2023-04-07T13:01:03.198Z,54.85
2023-04-07T13:03:29.914Z,53.31
2023-04-07T13:05:56.454Z,52.01
2023-04-07T13:08:22.922Z,52.03
2023-04-07T13:10:49.530Z,51.81
2023-04-07T13:13:16.089Z,50.73
2023-04-07T13:15:42.560Z,50.30
2023-04-07T13:18:09.166Z,48.76
2023-04-07T13:20:35.664Z,46.15
2023-04-07T13:23:08.207Z,46.48
2023-04-07T13:25:36.580Z,45.15
2023-04-07T13:28:03.125Z,44.87
2023-04-07T13:30:29.667Z,44.11
2023-04-07T13:32:56.167Z,44.00
2023-04-07T13:35:22.931Z,40.80
2023-04-07T13:37:50.190Z,39.50
2023-04-07T13:40:16.842Z,39.00
2023-04-07T13:42:43.616Z,38.71
2023-04-07T13:45:10.324Z,38.24
2023-04-07T13:47:36.843Z,36.16
2023-04-07T13:50:04.055Z,35.46
2023-04-07T13:52:30.724Z,35.00
2023-04-07T13:54:57.233Z,35.06
2023-04-07T13:57:23.735Z,35.46
2023-04-07T13:59:51.123Z,34.52
2023-04-07T14:02:20.855Z,35.55
2023-04-07T14:04:47.402Z,33.50
2023-04-07T14:07:13.868Z,33.04
2023-04-07T14:09:40.502Z,32.94
2023-04-07T14:12:06.958Z,32.82
2023-04-07T14:14:33.548Z,32.40
2023-04-07T14:17:00.073Z,32.21
2023-04-07T14:19:26.580Z,31.81
2023-04-07T14:21:53.493Z,31.10
2023-04-07T14:24:19.958Z,30.89
2023-04-07T14:26:46.534Z,30.06
2023-04-07T14:29:13.738Z,29.99
2023-04-07T14:31:40.604Z,28.38
2023-04-07T14:34:07.263Z,28.37
2023-04-07T14:36:33.751Z,28.01
2023-04-07T14:39:00.619Z,26.73
2023-04-07T14:41:27.714Z,26.36
2023-04-07T14:43:54.384Z,27.14
2023-04-07T14:46:24.446Z,28.14
2023-04-07T14:48:51.494Z,28.74
2023-04-07T14:51:18.589Z,29.02
2023-04-07T14:53:45.160Z,29.01
2023-04-07T14:56:12.724Z,29.42
2023-04-07T14:58:39.484Z,28.77
2023-04-07T15:01:07.160Z,27.80
2023-04-07T15:03:34.077Z,27.49
2023-04-07T15:06:01.140Z,27.31
2023-04-07T15:08:27.606Z,26.77
2023-04-07T15:10:54.073Z,26.58
2023-04-07T15:13:20.561Z,26.25
2023-04-07T15:15:47.072Z,25.89
2023-04-07T15:18:13.603Z,25.61
2023-04-07T15:20:40.216Z,25.51
2023-04-07T15:23:06.688Z,25.86
2023-04-07T15:25:33.150Z,25.82
2023-04-07T15:27:59.629Z,25.95
2023-04-07T15:30:26.127Z,25.35
2023-04-07T15:33:00.572Z,25.51
2023-04-07T15:35:27.441Z,25.17
2023-04-07T15:37:54.030Z,25.32
2023-04-07T15:40:20.654Z,25.48
2023-04-07T15:42:47.193Z,25.85
2023-04-07T15:45:13.639Z,25.77
2023-04-07T15:47:40.186Z,26.03
2023-04-07T15:50:07.400Z,25.47
2023-04-07T15:52:33.867Z,25.38
2023-04-07T15:55:00.385Z,25.33
2023-04-07T15:57:26.992Z,25.64
2023-04-07T15:59:53.484Z,25.95
2023-04-07T16:02:20.393Z,25.47
2023-04-07T16:04:47.047Z,25.13
2023-04-07T16:07:13.536Z,24.43
2023-04-07T16:09:40.027Z,24.47
2023-04-07T16:12:06.575Z,25.82
2023-04-07T16:14:33.102Z,26.25
2023-04-07T16:16:59.704Z,26.93
2023-04-07T16:19:26.241Z,27.44
2023-04-07T16:21:53.637Z,28.64
2023-04-07T16:24:20.837Z,29.63
2023-04-07T16:26:47.390Z,31.39
2023-04-07T16:29:13.849Z,33.09
2023-04-07T16:31:40.329Z,33.56
2023-04-07T16:34:06.776Z,33.89
2023-04-07T16:36:33.235Z,35.63
2023-04-07T16:38:59.770Z,36.12
2023-04-07T16:41:26.296Z,36.26
2023-04-07T16:43:52.793Z,36.63
2023-04-07T16:46:19.344Z,36.51
2023-04-07T16:48:46.443Z,38.70
2023-04-07T16:51:19.894Z,40.00
2023-04-07T16:53:47.140Z,40.31
2023-04-07T16:56:23.086Z,40.83
2023-04-07T16:58:50.037Z,41.24
2023-04-07T17:01:17.931Z,42.10
2023-04-07T17:03:47.096Z,41.50
2023-04-07T17:06:13.800Z,42.56
2023-04-07T17:08:40.266Z,42.24
2023-04-07T17:11:08.428Z,41.07
2023-04-07T17:13:35.529Z,42.55
2023-04-07T17:16:04.974Z,43.52
2023-04-07T17:18:32.799Z,44.47
2023-04-07T17:20:59.292Z,46.39
2023-04-07T17:23:25.780Z,45.80
2023-04-07T17:25:52.254Z,45.70
2023-04-07T17:28:18.731Z,46.04
2023-04-07T17:30:45.226Z,46.15
2023-04-07T17:33:11.986Z,46.47
2023-04-07T17:35:38.645Z,47.30
2023-04-07T17:38:05.231Z,47.26
2023-04-07T17:40:32.313Z,47.12
2023-04-07T17:42:59.011Z,46.14
2023-04-07T17:45:25.590Z,47.37
2023-04-07T17:47:52.062Z,47.05
2023-04-07T17:50:18.593Z,48.02
2023-04-07T17:52:45.122Z,48.05
2023-04-07T17:55:11.665Z,48.11
2023-04-07T17:57:38.127Z,47.34
2023-04-07T18:00:06.046Z,47.85
2023-04-07T18:02:32.699Z,49.42
2023-04-07T18:04:59.428Z,49.02
2023-04-07T18:07:26.107Z,49.10
2023-04-07T18:09:53.178Z,48.24
2023-04-07T18:12:19.704Z,48.36
2023-04-07T18:14:46.180Z,48.62
2023-04-07T18:17:12.685Z,48.98
2023-04-07T18:19:39.157Z,49.02
2023-04-07T18:22:05.694Z,49.36
2023-04-07T18:24:32.220Z,48.78
2023-04-07T18:26:58.699Z,48.18
2023-04-07T18:29:25.206Z,48.15
2023-04-07T18:31:51.887Z,47.81
2023-04-07T18:34:18.602Z,48.41
2023-04-07T18:36:45.136Z,47.84
2023-04-07T18:39:11.602Z,49.20
2023-04-07T18:41:39.997Z,49.96
2023-04-07T18:44:06.466Z,49.87
2023-04-07T18:46:33.008Z,50.31
2023-04-07T18:48:59.511Z,50.83
2023-04-07T18:51:26.040Z,50.74
2023-04-07T18:53:52.530Z,50.76
2023-04-07T18:56:19.113Z,52.89
2023-04-07T18:58:45.647Z,53.26
2023-04-07T19:01:12.171Z,53.16
2023-04-07T19:03:39.540Z,53.37
2023-04-07T19:06:06.155Z,55.22
2023-04-07T19:08:32.767Z,55.95
2023-04-07T19:10:59.417Z,55.73
2023-04-07T19:13:26.006Z,56.13
2023-04-07T19:15:52.556Z,56.18
2023-04-07T19:18:19.076Z,56.32
2023-04-07T19:20:45.567Z,56.61
2023-04-07T19:23:12.040Z,56.25
2023-04-07T19:25:38.517Z,56.02
2023-04-07T19:28:05.510Z,56.53
2023-04-07T19:30:31.959Z,56.36
2023-04-07T19:32:58.492Z,57.32
2023-04-07T19:35:25.125Z,56.82
2023-04-07T19:37:51.636Z,56.21
2023-04-07T19:40:18.166Z,56.43
2023-04-07T19:42:44.908Z,57.10
2023-04-07T19:45:11.870Z,57.08
2023-04-07T19:47:38.535Z,56.92
2023-04-07T19:50:06.194Z,57.79
2023-04-07T19:52:32.967Z,57.75
2023-04-07T19:54:59.631Z,58.29
2023-04-07T19:57:26.169Z,57.92
2023-04-07T19:59:52.744Z,57.40
2023-04-07T20:02:19.456Z,58.31
2023-04-07T20:04:46.046Z,56.96
2023-04-07T20:07:12.629Z,56.22
2023-04-07T20:09:39.155Z,55.59
2023-04-07T20:12:05.685Z,54.51
2023-04-07T20:14:32.273Z,54.02
2023-04-07T20:16:58.820Z,53.77
2023-04-07T20:19:25.461Z,54.28
2023-04-07T20:21:51.926Z,54.41
2023-04-07T20:24:18.480Z,53.93
2023-04-07T20:26:45.009Z,54.14
2023-04-07T20:29:11.466Z,53.72
2023-04-07T20:31:37.991Z,53.19
2023-04-07T20:34:04.483Z,51.98
2023-04-07T20:36:30.950Z,52.30
2023-04-07T20:38:57.618Z,52.47
2023-04-07T20:41:24.106Z,52.71
2023-04-07T20:43:51.302Z,52.76
2023-04-07T20:46:18.026Z,53.43
2023-04-07T20:48:44.565Z,53.37
2023-04-07T20:51:11.014Z,53.71
2023-04-07T20:53:37.492Z,54.34
2023-04-07T20:56:03.986Z,54.02
2023-04-07T20:58:30.485Z,53.32
2023-04-07T21:00:58.737Z,53.50
2023-04-07T21:03:26.987Z,53.76
2023-04-07T21:05:54.424Z,53.46
2023-04-07T21:08:21.108Z,52.57
2023-04-07T21:10:47.598Z,52.32
2023-04-07T21:13:14.096Z,52.12
2023-04-07T21:15:40.599Z,52.49
2023-04-07T21:18:07.160Z,52.70
2023-04-07T21:20:36.107Z,52.46
2023-04-07T21:23:02.740Z,52.61
2023-04-07T21:25:29.203Z,52.19
2023-04-07T21:27:55.687Z,53.09
2023-04-07T21:30:22.344Z,54.86
2023-04-07T21:32:48.870Z,55.95
2023-04-07T21:35:15.516Z,56.15
2023-04-07T21:37:42.033Z,54.99
2023-04-07T21:40:09.051Z,54.39
2023-04-07T21:42:35.524Z,54.12
2023-04-07T21:45:02.087Z,53.88
2023-04-07T21:47:28.630Z,53.86
2023-04-07T21:49:55.190Z,54.28
2023-04-07T21:52:21.716Z,54.29
2023-04-07T21:54:48.259Z,54.98
2023-04-07T21:57:14.779Z,54.87
2023-04-07T21:59:41.254Z,54.74
2023-04-07T22:02:07.782Z,54.26
2023-04-07T22:04:34.404Z,54.62
2023-04-07T22:07:01.180Z,54.32
2023-04-07T22:09:27.745Z,53.27
2023-04-07T22:11:54.242Z,53.82
2023-04-07T22:14:20.727Z,53.60
2023-04-07T22:16:47.196Z,52.90
2023-04-07T22:19:13.655Z,52.62
2023-04-07T22:21:40.166Z,52.19
2023-04-07T22:24:06.671Z,51.80
2023-04-07T22:26:33.125Z,51.40
2023-04-07T22:28:59.642Z,51.21
2023-04-07T22:31:26.179Z,50.79
2023-04-07T22:33:52.713Z,50.42
2023-04-07T22:36:19.208Z,50.75
2023-04-07T22:38:45.782Z,50.59
2023-04-07T22:41:12.325Z,50.78
2023-04-07T22:43:38.812Z,50.98
2023-04-07T22:46:05.503Z,50.45
2023-04-07T22:48:31.952Z,50.18
2023-04-07T22:50:58.980Z,50.11
2023-04-07T22:53:25.465Z,50.66
2023-04-07T22:55:52.010Z,50.48
2023-04-07T22:58:18.512Z,50.78
2023-04-07T23:00:45.051Z,50.75
2023-04-07T23:03:11.606Z,51.19
2023-04-07T23:05:38.121Z,51.01
2023-04-07T23:08:04.634Z,51.05
2023-04-07T23:10:31.977Z,50.96
2023-04-07T23:12:58.511Z,50.67
2023-04-07T23:15:25.153Z,50.66
2023-04-07T23:17:51.686Z,50.51
2023-04-07T23:20:18.290Z,50.85
2023-04-07T23:22:44.740Z,50.78
2023-04-07T23:25:11.198Z,51.73
2023-04-07T23:27:37.685Z,51.49
2023-04-07T23:30:04.717Z,51.44
2023-04-07T23:32:31.230Z,51.38
2023-04-07T23:34:57.784Z,51.33
2023-04-07T23:37:24.277Z,51.38
2023-04-07T23:39:51.376Z,51.40
2023-04-07T23:42:17.822Z,51.03
2023-04-07T23:44:44.252Z,50.98
2023-04-07T23:47:10.724Z,51.33
2023-04-07T23:49:37.195Z,51.30
2023-04-07T23:52:03.885Z,50.69
2023-04-07T23:54:30.360Z,51.16
2023-04-07T23:56:56.862Z,51.09
2023-04-07T23:59:23.524Z,50.75
